sensor_id;sensor_type;location;lat;lon;timestamp;P1;durP1;ratioP1;P2;durP2;ratioP2
37781;SDS011;23621;50.878;4.584;2022-10-04T00:01:46;7.35;;;6.32;;
37781;SDS011;23621;50.878;4.584;2022-10-04T00:04:25;7.80;;;6.75;;
37781;SDS011;23621;50.878;4.584;2022-10-04T00:07:19;10.35;;;7.45;;
37781;SDS011;23621;50.878;4.584;2022-10-04T00:09:53;8.50;;;7.10;;
37781;SDS011;23621;50.878;4.584;2022-10-04T00:12:45;8.20;;;6.72;;
37781;SDS011;23621;50.878;4.584;2022-10-04T00:15:32;7.82;;;7.00;;
37781;SDS011;23621;50.878;4.584;2022-10-04T00:26:09;8.02;;;6.95;;
37781;SDS011;23621;50.878;4.584;2022-10-04T00:28:48;9.90;;;6.93;;
37781;SDS011;23621;50.878;4.584;2022-10-04T00:31:25;9.77;;;7.95;;
37781;SDS011;23621;50.878;4.584;2022-10-04T00:39:35;8.57;;;7.22;;
37781;SDS011;23621;50.878;4.584;2022-10-04T00:48:03;8.13;;;6.65;;
37781;SDS011;23621;50.878;4.584;2022-10-04T00:50:37;10.48;;;6.65;;
37781;SDS011;23621;50.878;4.584;2022-10-04T00:53:22;8.45;;;5.68;;
37781;SDS011;23621;50.878;4.584;2022-10-04T00:55:55;6.30;;;5.65;;
37781;SDS011;23621;50.878;4.584;2022-10-04T00:58:27;7.03;;;6.32;;
37781;SDS011;23621;50.878;4.584;2022-10-04T01:00:58;8.00;;;6.07;;
37781;SDS011;23621;50.878;4.584;2022-10-04T01:05:57;10.90;;;7.22;;
37781;SDS011;23621;50.878;4.584;2022-10-04T01:08:33;8.63;;;6.90;;
37781;SDS011;23621;50.878;4.584;2022-10-04T01:11:12;8.70;;;7.80;;
37781;SDS011;23621;50.878;4.584;2022-10-04T01:16:56;8.93;;;7.35;;
37781;SDS011;23621;50.878;4.584;2022-10-04T01:22:08;8.52;;;7.63;;
37781;SDS011;23621;50.878;4.584;2022-10-04T01:24:38;11.43;;;7.70;;
37781;SDS011;23621;50.878;4.584;2022-10-04T01:29:55;7.95;;;7.15;;
37781;SDS011;23621;50.878;4.584;2022-10-04T01:32:21;8.93;;;7.75;;
37781;SDS011;23621;50.878;4.584;2022-10-04T01:34:48;9.73;;;7.55;;
37781;SDS011;23621;50.878;4.584;2022-10-04T01:37:15;8.55;;;7.38;;
37781;SDS011;23621;50.878;4.584;2022-10-04T01:39:42;12.77;;;8.07;;
37781;SDS011;23621;50.878;4.584;2022-10-04T01:42:22;10.05;;;8.75;;
37781;SDS011;23621;50.878;4.584;2022-10-04T01:45:06;9.52;;;7.20;;
37781;SDS011;23621;50.878;4.584;2022-10-04T01:47:55;8.32;;;7.13;;
37781;SDS011;23621;50.878;4.584;2022-10-04T01:50:33;8.43;;;7.57;;
37781;SDS011;23621;50.878;4.584;2022-10-04T01:53:33;8.20;;;7.35;;
37781;SDS011;23621;50.878;4.584;2022-10-04T01:56:40;10.15;;;7.82;;
37781;SDS011;23621;50.878;4.584;2022-10-04T01:59:05;10.07;;;8.35;;
37781;SDS011;23621;50.878;4.584;2022-10-04T02:01:40;9.30;;;7.65;;
37781;SDS011;23621;50.878;4.584;2022-10-04T02:04:18;9.05;;;7.65;;
37781;SDS011;23621;50.878;4.584;2022-10-04T02:06:49;9.30;;;7.78;;
37781;SDS011;23621;50.878;4.584;2022-10-04T02:09:27;11.80;;;7.57;;
37781;SDS011;23621;50.878;4.584;2022-10-04T02:11:58;9.60;;;7.75;;
37781;SDS011;23621;50.878;4.584;2022-10-04T02:14:31;8.20;;;7.40;;
37781;SDS011;23621;50.878;4.584;2022-10-04T02:16:59;8.30;;;7.35;;
37781;SDS011;23621;50.878;4.584;2022-10-04T02:19:33;8.77;;;7.78;;
37781;SDS011;23621;50.878;4.584;2022-10-04T02:22:02;10.50;;;8.35;;
37781;SDS011;23621;50.878;4.584;2022-10-04T02:24:34;9.65;;;7.40;;
37781;SDS011;23621;50.878;4.584;2022-10-04T02:27:03;10.15;;;7.43;;
37781;SDS011;23621;50.878;4.584;2022-10-04T02:29:31;12.73;;;8.23;;
37781;SDS011;23621;50.878;4.584;2022-10-04T02:31:58;11.07;;;8.57;;
37781;SDS011;23621;50.878;4.584;2022-10-04T02:34:45;11.68;;;7.97;;
37781;SDS011;23621;50.878;4.584;2022-10-04T02:37:12;8.68;;;7.85;;
37781;SDS011;23621;50.878;4.584;2022-10-04T02:39:44;9.45;;;7.60;;
37781;SDS011;23621;50.878;4.584;2022-10-04T02:42:18;11.13;;;8.80;;
37781;SDS011;23621;50.878;4.584;2022-10-04T02:44:55;13.43;;;8.38;;
37781;SDS011;23621;50.878;4.584;2022-10-04T02:47:29;9.57;;;8.10;;
37781;SDS011;23621;50.878;4.584;2022-10-04T02:50:20;9.88;;;8.43;;
37781;SDS011;23621;50.878;4.584;2022-10-04T02:53:18;11.77;;;8.27;;
37781;SDS011;23621;50.878;4.584;2022-10-04T02:55:57;9.82;;;7.55;;
37781;SDS011;23621;50.878;4.584;2022-10-04T02:58:24;10.35;;;8.32;;
37781;SDS011;23621;50.878;4.584;2022-10-04T03:00:55;10.43;;;7.90;;
37781;SDS011;23621;50.878;4.584;2022-10-04T03:06:27;9.30;;;7.57;;
37781;SDS011;23621;50.878;4.584;2022-10-04T03:08:47;11.45;;;7.22;;
37781;SDS011;23621;50.878;4.584;2022-10-04T03:11:18;8.43;;;7.63;;
37781;SDS011;23621;50.878;4.584;2022-10-04T03:13:48;10.15;;;7.57;;
37781;SDS011;23621;50.878;4.584;2022-10-04T03:16:18;9.07;;;7.28;;
37781;SDS011;23621;50.878;4.584;2022-10-04T03:18:46;8.40;;;7.53;;
37781;SDS011;23621;50.878;4.584;2022-10-04T03:21:15;8.63;;;7.28;;
37781;SDS011;23621;50.878;4.584;2022-10-04T03:23:46;8.65;;;7.40;;
37781;SDS011;23621;50.878;4.584;2022-10-04T03:29:10;7.47;;;6.78;;
37781;SDS011;23621;50.878;4.584;2022-10-04T03:31:40;8.00;;;7.07;;
37781;SDS011;23621;50.878;4.584;2022-10-04T03:34:19;10.02;;;7.60;;
37781;SDS011;23621;50.878;4.584;2022-10-04T03:36:49;8.40;;;6.97;;
37781;SDS011;23621;50.878;4.584;2022-10-04T03:39:25;8.65;;;6.90;;
37781;SDS011;23621;50.878;4.584;2022-10-04T03:41:53;10.27;;;6.75;;
37781;SDS011;23621;50.878;4.584;2022-10-04T03:44:22;9.05;;;7.15;;
37781;SDS011;23621;50.878;4.584;2022-10-04T03:46:49;8.00;;;7.00;;
37781;SDS011;23621;50.878;4.584;2022-10-04T03:49:24;8.35;;;7.03;;
37781;SDS011;23621;50.878;4.584;2022-10-04T03:51:58;9.00;;;6.55;;
37781;SDS011;23621;50.878;4.584;2022-10-04T03:54:27;7.93;;;6.63;;
37781;SDS011;23621;50.878;4.584;2022-10-04T03:56:55;7.80;;;6.90;;
37781;SDS011;23621;50.878;4.584;2022-10-04T03:59:24;8.65;;;7.13;;
37781;SDS011;23621;50.878;4.584;2022-10-04T04:02:01;8.05;;;7.03;;
37781;SDS011;23621;50.878;4.584;2022-10-04T04:05:09;10.27;;;6.80;;
37781;SDS011;23621;50.878;4.584;2022-10-04T04:10:33;8.57;;;6.68;;
37781;SDS011;23621;50.878;4.584;2022-10-04T04:15:36;7.68;;;6.85;;
37781;SDS011;23621;50.878;4.584;2022-10-04T04:18:42;7.70;;;6.85;;
37781;SDS011;23621;50.878;4.584;2022-10-04T04:21:03;9.52;;;6.63;;
37781;SDS011;23621;50.878;4.584;2022-10-04T04:23:40;7.95;;;6.50;;
37781;SDS011;23621;50.878;4.584;2022-10-04T04:28:53;9.02;;;6.75;;
37781;SDS011;23621;50.878;4.584;2022-10-04T04:31:35;9.75;;;6.47;;
37781;SDS011;23621;50.878;4.584;2022-10-04T04:34:14;7.40;;;6.00;;
37781;SDS011;23621;50.878;4.584;2022-10-04T04:36:44;8.20;;;6.10;;
37781;SDS011;23621;50.878;4.584;2022-10-04T04:39:18;9.75;;;6.60;;
37781;SDS011;23621;50.878;4.584;2022-10-04T04:45:20;8.68;;;5.68;;
37781;SDS011;23621;50.878;4.584;2022-10-04T04:47:52;7.63;;;5.38;;
37781;SDS011;23621;50.878;4.584;2022-10-04T04:50:25;9.30;;;5.97;;
37781;SDS011;23621;50.878;4.584;2022-10-04T04:52:58;7.50;;;5.70;;
37781;SDS011;23621;50.878;4.584;2022-10-04T04:55:43;7.22;;;6.13;;
37781;SDS011;23621;50.878;4.584;2022-10-04T04:58:31;8.45;;;5.57;;
37781;SDS011;23621;50.878;4.584;2022-10-04T05:03:27;7.90;;;5.38;;
37781;SDS011;23621;50.878;4.584;2022-10-04T05:05:59;7.65;;;5.70;;
37781;SDS011;23621;50.878;4.584;2022-10-04T05:08:31;9.85;;;6.15;;
37781;SDS011;23621;50.878;4.584;2022-10-04T05:16:10;7.93;;;5.78;;
37781;SDS011;23621;50.878;4.584;2022-10-04T05:18:41;7.20;;;5.53;;
37781;SDS011;23621;50.878;4.584;2022-10-04T05:21:14;7.70;;;5.07;;
37781;SDS011;23621;50.878;4.584;2022-10-04T05:23:49;6.57;;;4.80;;
37781;SDS011;23621;50.878;4.584;2022-10-04T05:26:19;7.47;;;5.20;;
37781;SDS011;23621;50.878;4.584;2022-10-04T05:28:53;9.35;;;5.57;;
37781;SDS011;23621;50.878;4.584;2022-10-04T05:32:23;5.80;;;5.03;;
37781;SDS011;23621;50.878;4.584;2022-10-04T05:34:39;5.93;;;5.32;;
37781;SDS011;23621;50.878;4.584;2022-10-04T05:37:13;8.23;;;5.35;;
37781;SDS011;23621;50.878;4.584;2022-10-04T05:42:39;7.35;;;5.22;;
37781;SDS011;23621;50.878;4.584;2022-10-04T05:45:20;6.72;;;4.75;;
37781;SDS011;23621;50.878;4.584;2022-10-04T05:47:51;6.47;;;4.80;;
37781;SDS011;23621;50.878;4.584;2022-10-04T05:50:30;5.78;;;4.72;;
37781;SDS011;23621;50.878;4.584;2022-10-04T05:55:42;6.22;;;4.95;;
37781;SDS011;23621;50.878;4.584;2022-10-04T06:06:49;6.32;;;4.43;;
37781;SDS011;23621;50.878;4.584;2022-10-04T06:09:38;10.15;;;5.22;;
37781;SDS011;23621;50.878;4.584;2022-10-04T06:12:29;5.65;;;4.82;;
37781;SDS011;23621;50.878;4.584;2022-10-04T06:18:01;8.13;;;5.03;;
37781;SDS011;23621;50.878;4.584;2022-10-04T06:20:53;7.22;;;5.10;;
37781;SDS011;23621;50.878;4.584;2022-10-04T06:23:29;6.18;;;4.63;;
37781;SDS011;23621;50.878;4.584;2022-10-04T06:26:05;5.88;;;4.82;;
37781;SDS011;23621;50.878;4.584;2022-10-04T06:28:41;7.47;;;4.45;;
37781;SDS011;23621;50.878;4.584;2022-10-04T06:31:17;5.18;;;4.65;;
37781;SDS011;23621;50.878;4.584;2022-10-04T06:37:49;7.53;;;4.65;;
37781;SDS011;23621;50.878;4.584;2022-10-04T06:45:29;6.35;;;4.88;;
37781;SDS011;23621;50.878;4.584;2022-10-04T06:51:02;5.38;;;4.72;;
37781;SDS011;23621;50.878;4.584;2022-10-04T06:56:51;5.68;;;4.80;;
37781;SDS011;23621;50.878;4.584;2022-10-04T06:59:32;6.03;;;4.65;;
37781;SDS011;23621;50.878;4.584;2022-10-04T07:02:15;5.45;;;4.95;;
37781;SDS011;23621;50.878;4.584;2022-10-04T07:04:59;6.65;;;4.80;;
37781;SDS011;23621;50.878;4.584;2022-10-04T07:07:35;5.65;;;4.60;;
37781;SDS011;23621;50.878;4.584;2022-10-04T07:16:00;7.55;;;4.60;;
37781;SDS011;23621;50.878;4.584;2022-10-04T07:18:57;7.35;;;4.93;;
37781;SDS011;23621;50.878;4.584;2022-10-04T07:21:39;7.40;;;5.10;;
37781;SDS011;23621;50.878;4.584;2022-10-04T07:24:21;6.82;;;4.78;;
37781;SDS011;23621;50.878;4.584;2022-10-04T07:26:52;7.10;;;4.35;;
37781;SDS011;23621;50.878;4.584;2022-10-04T07:29:28;6.45;;;4.95;;
37781;SDS011;23621;50.878;4.584;2022-10-04T07:34:33;7.50;;;4.53;;
37781;SDS011;23621;50.878;4.584;2022-10-04T07:37:09;6.45;;;4.95;;
37781;SDS011;23621;50.878;4.584;2022-10-04T07:47:25;5.43;;;4.93;;
37781;SDS011;23621;50.878;4.584;2022-10-04T07:49:53;8.23;;;4.70;;
37781;SDS011;23621;50.878;4.584;2022-10-04T07:52:29;7.43;;;4.60;;
37781;SDS011;23621;50.878;4.584;2022-10-04T07:57:50;7.93;;;4.75;;
37781;SDS011;23621;50.878;4.584;2022-10-04T08:14:27;7.90;;;4.78;;
37781;SDS011;23621;50.878;4.584;2022-10-04T08:20:12;7.18;;;4.78;;
37781;SDS011;23621;50.878;4.584;2022-10-04T08:25:25;7.63;;;4.90;;
37781;SDS011;23621;50.878;4.584;2022-10-04T08:31:02;7.60;;;5.28;;
37781;SDS011;23621;50.878;4.584;2022-10-04T08:38:49;6.45;;;4.80;;
37781;SDS011;23621;50.878;4.584;2022-10-04T08:58:12;8.88;;;5.63;;
37781;SDS011;23621;50.878;4.584;2022-10-04T09:11:48;7.55;;;4.82;;
37781;SDS011;23621;50.878;4.584;2022-10-04T09:14:34;5.95;;;5.35;;
37781;SDS011;23621;50.878;4.584;2022-10-04T09:20:48;9.55;;;5.20;;
37781;SDS011;23621;50.878;4.584;2022-10-04T09:26:06;7.65;;;5.38;;
37781;SDS011;23621;50.878;4.584;2022-10-04T09:29:04;8.25;;;5.40;;
37781;SDS011;23621;50.878;4.584;2022-10-04T09:47:54;12.13;;;4.97;;
37781;SDS011;23621;50.878;4.584;2022-10-04T09:50:41;6.57;;;4.50;;
37781;SDS011;23621;50.878;4.584;2022-10-04T09:56:26;5.47;;;4.72;;
37781;SDS011;23621;50.878;4.584;2022-10-04T09:59:22;6.03;;;4.20;;
37781;SDS011;23621;50.878;4.584;2022-10-04T10:02:17;5.40;;;4.15;;
37781;SDS011;23621;50.878;4.584;2022-10-04T10:10:49;6.70;;;3.70;;
37781;SDS011;23621;50.878;4.584;2022-10-04T10:14:01;6.05;;;4.10;;
37781;SDS011;23621;50.878;4.584;2022-10-04T10:19:46;6.97;;;3.90;;
37781;SDS011;23621;50.878;4.584;2022-10-04T10:34:02;6.65;;;3.38;;
37781;SDS011;23621;50.878;4.584;2022-10-04T10:45:34;4.25;;;3.60;;
37781;SDS011;23621;50.878;4.584;2022-10-04T10:54:13;4.78;;;3.75;;
37781;SDS011;23621;50.878;4.584;2022-10-04T10:56:54;3.95;;;3.42;;
37781;SDS011;23621;50.878;4.584;2022-10-04T11:02:35;4.22;;;3.67;;
37781;SDS011;23621;50.878;4.584;2022-10-04T11:08:35;4.97;;;3.50;;
37781;SDS011;23621;50.878;4.584;2022-10-04T11:19:48;3.80;;;3.00;;
37781;SDS011;23621;50.878;4.584;2022-10-04T11:25:20;5.45;;;3.40;;
37781;SDS011;23621;50.878;4.584;2022-10-04T11:38:51;4.32;;;3.00;;
37781;SDS011;23621;50.878;4.584;2022-10-04T11:44:29;5.85;;;3.40;;
37781;SDS011;23621;50.878;4.584;2022-10-04T11:47:06;4.25;;;3.50;;
37781;SDS011;23621;50.878;4.584;2022-10-04T11:58:11;4.28;;;3.15;;
37781;SDS011;23621;50.878;4.584;2022-10-04T12:04:10;5.00;;;3.35;;
37781;SDS011;23621;50.878;4.584;2022-10-04T12:09:58;5.47;;;3.20;;
37781;SDS011;23621;50.878;4.584;2022-10-04T12:32:33;3.38;;;2.40;;
37781;SDS011;23621;50.878;4.584;2022-10-04T12:54:55;3.40;;;3.10;;
37781;SDS011;23621;50.878;4.584;2022-10-04T12:58:01;2.75;;;2.17;;
37781;SDS011;23621;50.878;4.584;2022-10-04T13:00:41;2.38;;;2.17;;
37781;SDS011;23621;50.878;4.584;2022-10-04T13:03:25;3.45;;;2.42;;
37781;SDS011;23621;50.878;4.584;2022-10-04T13:12:02;3.10;;;2.28;;
37781;SDS011;23621;50.878;4.584;2022-10-04T13:14:39;2.60;;;2.35;;
37781;SDS011;23621;50.878;4.584;2022-10-04T13:25:39;4.78;;;2.70;;
37781;SDS011;23621;50.878;4.584;2022-10-04T13:28:30;3.53;;;2.60;;
37781;SDS011;23621;50.878;4.584;2022-10-04T13:50:55;3.25;;;2.95;;
37781;SDS011;23621;50.878;4.584;2022-10-04T13:56:46;3.55;;;2.78;;
37781;SDS011;23621;50.878;4.584;2022-10-04T14:02:09;2.97;;;2.60;;
37781;SDS011;23621;50.878;4.584;2022-10-04T14:04:41;2.67;;;2.42;;
37781;SDS011;23621;50.878;4.584;2022-10-04T14:10:41;3.33;;;2.78;;
37781;SDS011;23621;50.878;4.584;2022-10-04T14:19:18;3.00;;;2.60;;
37781;SDS011;23621;50.878;4.584;2022-10-04T14:25:03;3.67;;;2.83;;
37781;SDS011;23621;50.878;4.584;2022-10-04T14:41:34;3.30;;;2.90;;
37781;SDS011;23621;50.878;4.584;2022-10-04T14:58:58;2.80;;;2.58;;
37781;SDS011;23621;50.878;4.584;2022-10-04T15:06:57;4.25;;;2.83;;
37781;SDS011;23621;50.878;4.584;2022-10-04T15:15:48;3.97;;;2.55;;
37781;SDS011;23621;50.878;4.584;2022-10-04T15:24:11;2.53;;;2.33;;
37781;SDS011;23621;50.878;4.584;2022-10-04T15:29:36;4.47;;;2.70;;
37781;SDS011;23621;50.878;4.584;2022-10-04T15:32:28;4.35;;;2.75;;
37781;SDS011;23621;50.878;4.584;2022-10-04T15:37:57;3.55;;;3.10;;
37781;SDS011;23621;50.878;4.584;2022-10-04T15:40:33;3.33;;;2.67;;
37781;SDS011;23621;50.878;4.584;2022-10-04T15:51:08;3.38;;;2.72;;
37781;SDS011;23621;50.878;4.584;2022-10-04T15:59:35;5.55;;;3.60;;
37781;SDS011;23621;50.878;4.584;2022-10-04T16:04:57;2.95;;;2.75;;
37781;SDS011;23621;50.878;4.584;2022-10-04T16:13:30;4.03;;;2.75;;
37781;SDS011;23621;50.878;4.584;2022-10-04T16:21:38;3.67;;;2.80;;
37781;SDS011;23621;50.878;4.584;2022-10-04T16:29:15;5.35;;;3.20;;
37781;SDS011;23621;50.878;4.584;2022-10-04T16:32:17;3.17;;;2.58;;
37781;SDS011;23621;50.878;4.584;2022-10-04T16:53:48;6.25;;;3.70;;
37781;SDS011;23621;50.878;4.584;2022-10-04T16:56:27;4.28;;;3.45;;
37781;SDS011;23621;50.878;4.584;2022-10-04T16:59:01;4.00;;;3.60;;
37781;SDS011;23621;50.878;4.584;2022-10-04T17:16:04;3.50;;;3.13;;
37781;SDS011;23621;50.878;4.584;2022-10-04T17:21:36;3.60;;;3.30;;
37781;SDS011;23621;50.878;4.584;2022-10-04T17:24:27;3.50;;;3.05;;
37781;SDS011;23621;50.878;4.584;2022-10-04T17:27:17;3.30;;;2.97;;
37781;SDS011;23621;50.878;4.584;2022-10-04T17:48:57;4.65;;;4.25;;
37781;SDS011;23621;50.878;4.584;2022-10-04T17:52:01;5.10;;;4.22;;
37781;SDS011;23621;50.878;4.584;2022-10-04T17:54:52;4.43;;;3.45;;
37781;SDS011;23621;50.878;4.584;2022-10-04T18:00:14;5.40;;;3.97;;
37781;SDS011;23621;50.878;4.584;2022-10-04T18:11:05;4.20;;;3.67;;
37781;SDS011;23621;50.878;4.584;2022-10-04T18:13:59;4.13;;;3.63;;
37781;SDS011;23621;50.878;4.584;2022-10-04T18:16:51;5.40;;;4.07;;
37781;SDS011;23621;50.878;4.584;2022-10-04T18:22:17;4.25;;;3.85;;
37781;SDS011;23621;50.878;4.584;2022-10-04T18:33:15;5.80;;;4.82;;
37781;SDS011;23621;50.878;4.584;2022-10-04T18:36:47;4.38;;;3.97;;
37781;SDS011;23621;50.878;4.584;2022-10-04T18:39:01;5.47;;;4.90;;
37781;SDS011;23621;50.878;4.584;2022-10-04T18:41:42;5.20;;;4.63;;
37781;SDS011;23621;50.878;4.584;2022-10-04T18:45:16;5.15;;;4.65;;
37781;SDS011;23621;50.878;4.584;2022-10-04T18:47:32;6.28;;;4.32;;
37781;SDS011;23621;50.878;4.584;2022-10-04T18:50:13;5.05;;;4.30;;
37781;SDS011;23621;50.878;4.584;2022-10-04T18:52:52;5.32;;;4.65;;
37781;SDS011;23621;50.878;4.584;2022-10-04T18:55:43;7.28;;;4.60;;
37781;SDS011;23621;50.878;4.584;2022-10-04T19:01:35;4.82;;;4.25;;
37781;SDS011;23621;50.878;4.584;2022-10-04T19:04:29;5.00;;;4.25;;
37781;SDS011;23621;50.878;4.584;2022-10-04T19:10:28;7.35;;;5.05;;
37781;SDS011;23621;50.878;4.584;2022-10-04T19:13:27;6.45;;;5.18;;
37781;SDS011;23621;50.878;4.584;2022-10-04T19:16:01;5.22;;;4.35;;
37781;SDS011;23621;50.878;4.584;2022-10-04T19:18:45;5.50;;;4.93;;
37781;SDS011;23621;50.878;4.584;2022-10-04T19:26:53;6.05;;;4.85;;
37781;SDS011;23621;50.878;4.584;2022-10-04T19:32:45;6.53;;;5.13;;
37781;SDS011;23621;50.878;4.584;2022-10-04T19:36:00;5.65;;;4.78;;
37781;SDS011;23621;50.878;4.584;2022-10-04T19:38:41;6.90;;;5.32;;
37781;SDS011;23621;50.878;4.584;2022-10-04T19:41:21;5.35;;;4.32;;
37781;SDS011;23621;50.878;4.584;2022-10-04T19:47:00;7.20;;;5.10;;
37781;SDS011;23621;50.878;4.584;2022-10-04T19:49:37;5.40;;;4.90;;
37781;SDS011;23621;50.878;4.584;2022-10-04T19:52:35;6.15;;;5.25;;
37781;SDS011;23621;50.878;4.584;2022-10-04T20:00:44;5.75;;;5.13;;
37781;SDS011;23621;50.878;4.584;2022-10-04T20:03:11;6.45;;;5.32;;
37781;SDS011;23621;50.878;4.584;2022-10-04T20:05:45;5.90;;;5.30;;
37781;SDS011;23621;50.878;4.584;2022-10-04T20:11:17;7.30;;;5.40;;
37781;SDS011;23621;50.878;4.584;2022-10-04T20:27:03;5.72;;;5.13;;
37781;SDS011;23621;50.878;4.584;2022-10-04T20:32:04;7.93;;;5.18;;
37781;SDS011;23621;50.878;4.584;2022-10-04T20:34:32;5.85;;;5.22;;
37781;SDS011;23621;50.878;4.584;2022-10-04T20:37:03;7.20;;;5.60;;
37781;SDS011;23621;50.878;4.584;2022-10-04T20:42:07;8.35;;;5.63;;
37781;SDS011;23621;50.878;4.584;2022-10-04T20:47:43;5.63;;;4.97;;
37781;SDS011;23621;50.878;4.584;2022-10-04T20:50:16;7.15;;;5.20;;
37781;SDS011;23621;50.878;4.584;2022-10-04T20:52:56;6.97;;;5.63;;
37781;SDS011;23621;50.878;4.584;2022-10-04T20:55:25;5.68;;;5.15;;
37781;SDS011;23621;50.878;4.584;2022-10-04T20:57:55;7.05;;;5.40;;
37781;SDS011;23621;50.878;4.584;2022-10-04T21:00:29;6.38;;;5.03;;
37781;SDS011;23621;50.878;4.584;2022-10-04T21:03:08;7.47;;;5.32;;
37781;SDS011;23621;50.878;4.584;2022-10-04T21:05:44;5.85;;;5.35;;
37781;SDS011;23621;50.878;4.584;2022-10-04T21:08:23;6.30;;;4.97;;
37781;SDS011;23621;50.878;4.584;2022-10-04T21:11:01;7.93;;;5.10;;
37781;SDS011;23621;50.878;4.584;2022-10-04T21:30:05;6.70;;;6.00;;
37781;SDS011;23621;50.878;4.584;2022-10-04T21:32:37;8.80;;;5.90;;
37781;SDS011;23621;50.878;4.584;2022-10-04T21:35:05;7.55;;;6.20;;
37781;SDS011;23621;50.878;4.584;2022-10-04T21:37:34;7.03;;;5.88;;
37781;SDS011;23621;50.878;4.584;2022-10-04T21:40:01;7.80;;;6.10;;
37781;SDS011;23621;50.878;4.584;2022-10-04T21:42:28;6.75;;;5.70;;
37781;SDS011;23621;50.878;4.584;2022-10-04T21:44:55;7.18;;;6.20;;
37781;SDS011;23621;50.878;4.584;2022-10-04T21:47:22;7.90;;;6.07;;
37781;SDS011;23621;50.878;4.584;2022-10-04T21:49:49;7.70;;;6.03;;
37781;SDS011;23621;50.878;4.584;2022-10-04T21:52:17;10.02;;;6.60;;
37781;SDS011;23621;50.878;4.584;2022-10-04T21:54:44;7.18;;;6.13;;
37781;SDS011;23621;50.878;4.584;2022-10-04T21:57:11;5.95;;;5.35;;
37781;SDS011;23621;50.878;4.584;2022-10-04T21:59:38;7.38;;;6.03;;
37781;SDS011;23621;50.878;4.584;2022-10-04T22:02:05;6.95;;;6.05;;
37781;SDS011;23621;50.878;4.584;2022-10-04T22:04:35;9.10;;;6.15;;
37781;SDS011;23621;50.878;4.584;2022-10-04T22:07:03;8.65;;;6.03;;
37781;SDS011;23621;50.878;4.584;2022-10-04T22:09:30;8.60;;;6.28;;
37781;SDS011;23621;50.878;4.584;2022-10-04T22:11:58;8.85;;;5.80;;
37781;SDS011;23621;50.878;4.584;2022-10-04T22:14:25;6.30;;;5.38;;
37781;SDS011;23621;50.878;4.584;2022-10-04T22:16:51;7.20;;;5.85;;
37781;SDS011;23621;50.878;4.584;2022-10-04T22:19:18;7.10;;;6.15;;
37781;SDS011;23621;50.878;4.584;2022-10-04T22:21:45;8.43;;;5.78;;
37781;SDS011;23621;50.878;4.584;2022-10-04T22:24:17;6.72;;;5.30;;
37781;SDS011;23621;50.878;4.584;2022-10-04T22:26:45;9.50;;;5.90;;
37781;SDS011;23621;50.878;4.584;2022-10-04T22:29:13;9.00;;;6.05;;
37781;SDS011;23621;50.878;4.584;2022-10-04T22:31:43;6.53;;;5.80;;
37781;SDS011;23621;50.878;4.584;2022-10-04T22:34:14;11.60;;;5.88;;
37781;SDS011;23621;50.878;4.584;2022-10-04T22:36:44;8.88;;;5.97;;
37781;SDS011;23621;50.878;4.584;2022-10-04T22:39:14;10.32;;;6.05;;
37781;SDS011;23621;50.878;4.584;2022-10-04T22:41:44;7.25;;;6.00;;
37781;SDS011;23621;50.878;4.584;2022-10-04T22:44:27;8.00;;;6.07;;
37781;SDS011;23621;50.878;4.584;2022-10-04T22:47:00;6.20;;;5.60;;
37781;SDS011;23621;50.878;4.584;2022-10-04T22:49:31;6.97;;;5.82;;
37781;SDS011;23621;50.878;4.584;2022-10-04T22:52:08;6.22;;;5.63;;
37781;SDS011;23621;50.878;4.584;2022-10-04T22:54:41;7.32;;;5.95;;
37781;SDS011;23621;50.878;4.584;2022-10-04T22:57:10;8.35;;;5.78;;
37781;SDS011;23621;50.878;4.584;2022-10-04T22:59:43;6.03;;;5.25;;
37781;SDS011;23621;50.878;4.584;2022-10-04T23:02:21;7.70;;;5.50;;
37781;SDS011;23621;50.878;4.584;2022-10-04T23:04:55;8.48;;;5.53;;
37781;SDS011;23621;50.878;4.584;2022-10-04T23:07:26;7.28;;;5.65;;
37781;SDS011;23621;50.878;4.584;2022-10-04T23:09:52;7.07;;;5.50;;
37781;SDS011;23621;50.878;4.584;2022-10-04T23:12:19;6.15;;;5.50;;
37781;SDS011;23621;50.878;4.584;2022-10-04T23:14:46;6.88;;;5.75;;
37781;SDS011;23621;50.878;4.584;2022-10-04T23:17:51;6.10;;;5.50;;
37781;SDS011;23621;50.878;4.584;2022-10-04T23:20:14;7.63;;;5.28;;
37781;SDS011;23621;50.878;4.584;2022-10-04T23:22:49;5.97;;;5.10;;
37781;SDS011;23621;50.878;4.584;2022-10-04T23:25:18;6.15;;;5.38;;
37781;SDS011;23621;50.878;4.584;2022-10-04T23:27:48;5.63;;;5.00;;
37781;SDS011;23621;50.878;4.584;2022-10-04T23:30:16;5.60;;;5.03;;
37781;SDS011;23621;50.878;4.584;2022-10-04T23:32:48;5.18;;;4.53;;
37781;SDS011;23621;50.878;4.584;2022-10-04T23:35:18;5.47;;;4.97;;
37781;SDS011;23621;50.878;4.584;2022-10-04T23:37:49;6.93;;;4.88;;
37781;SDS011;23621;50.878;4.584;2022-10-04T23:40:18;5.70;;;5.10;;
37781;SDS011;23621;50.878;4.584;2022-10-04T23:42:47;5.55;;;5.05;;
37781;SDS011;23621;50.878;4.584;2022-10-04T23:45:25;5.35;;;4.70;;
37781;SDS011;23621;50.878;4.584;2022-10-04T23:47:52;7.90;;;4.97;;
37781;SDS011;23621;50.878;4.584;2022-10-04T23:50:39;6.10;;;4.63;;
37781;SDS011;23621;50.878;4.584;2022-10-04T23:53:10;6.50;;;4.80;;
37781;SDS011;23621;50.878;4.584;2022-10-04T23:55:52;5.65;;;4.38;;
37781;SDS011;23621;50.878;4.584;2022-10-04T23:58:21;6.03;;;4.82;;
